AirNav   Phillips 66 Aviation Fuel
 
 357 users online  

KTZV Tompkinsville-Monroe County Airport
Tompkinsville, Kentucky, USA

GOING TO TOMPKINSVILLE?


FAA INFORMATION EFFECTIVE 26 APRIL 2018

Location

FAA Identifier: TZV
Lat/Long: 36-43-44.5000N / 085-39-08.6000W
36-43.741667N / 085-39.143333W
36.7290278 / -85.6523889
(estimated)
Elevation: 1036.2 ft. / 315.8 m (surveyed)
Variation: 04W (2010)
From city: 2 miles NE of TOMPKINSVILLE, KY
Time zone: UTC -5 (UTC -6 during Standard Time)
Zip code: 42167

Airport Operations

Airport use: Open to the public
Activation date: 11/1988
Control tower: no
ARTCC: MEMPHIS CENTER
FSS: LOUISVILLE FLIGHT SERVICE STATION
NOTAMs facility: LOU (NOTAM-D service available)
Attendance: UNATNDD
Wind indicator: lighted
Segmented circle: no
Lights: ACTVT REIL RY 04/ 22; PAPI RY 04/ 22; MIRL RY 04/22 - CTAF.
Beacon: white-green (lighted land airport)
Operates sunset to sunrise.

Airport Communications

CTAF/UNICOM: 123.05
WX AWOS-AV: 123.050
  • APCH/DEP SVC PRVDD BY MEMPHIS ARTCC ON FREQS 132.9/263.1 (NASHVILLE/JOELTON RCAG).

Nearby radio navigation aids

VOR radial/distance  VOR name  Freq  Var
LVTr292/24.9LIVINGSTON VOR/DME108.4002W
BWGr106/39.8BOWLING GREEN VORTAC117.9002E

Airport Services

Fuel available: 100LL
Parking: hangars and tiedowns
Airframe service: NONE
Powerplant service: NONE

Runway Information

Runway 4/22

Dimensions: 4000 x 75 ft. / 1219 x 23 m
Surface: asphalt, in good condition
Weight bearing capacity: 
Single wheel: 12.0
Runway edge lights: medium intensity
Gradient: NE
RUNWAY 4  RUNWAY 22
Latitude: 36-43.470603N36-44.014112N
Longitude: 085-39.374307W085-38.911070W
Elevation: 1015.3 ft.1036.2 ft.
Gradient: 0.5% UP0.5% DOWN
Traffic pattern: leftleft
Runway heading: 038 magnetic, 034 true218 magnetic, 214 true
Markings: nonprecision, in good conditionnonprecision, in good condition
Visual slope indicator: 2-light PAPI on left (3.75 degrees glide path)2-light PAPI on left (3.00 degrees glide path)
Runway end identifier lights: yesyes
Touchdown point: yes, no lightsyes, no lights
Obstructions: 57 ft. pole, 1362 ft. from runway, 354 ft. left of centerline, 20:1 slope to clear20 ft. trees, 750 ft. from runway, 196 ft. left of centerline, 27:1 slope to clear

Airport Ownership and Management from official FAA records

Ownership: Publicly-owned
Owner: TOMPKINSVILLE-MONROE CO APT
P.O. BOX 175
TOMPKINSVILLE, KY 42167
Phone 270-487-0678
Manager: MARSHALL HODGES
661 LYONS CHAPEL ROAD
TOMPKINSVILLE, KY 42167
Phone 214-458-0600

Airport Operational Statistics

Aircraft based on the field: 16
Single engine airplanes: 13
Multi engine airplanes: 3
    
Aircraft operations: avg 30/day *
76% local general aviation
14% transient general aviation
7% air taxi
3% military
* for 12-month period ending 01 June 2015

Additional Remarks

USE CTAF FREQ ON KEYPAD FOR TERMINAL ACCESS.

Instrument Procedures

NOTE: All procedures below are presented as PDF files. If you need a reader for these files, you should download the free Adobe Reader.

NOT FOR NAVIGATION. Please procure official charts for flight.
FAA instrument procedures published for use from 26 April 2018 at 901Z to 24 May 2018 at 0900Z.

 
IAPs - Instrument Approach Procedures
RNAV (GPS) RWY 04   download (179KB)
RNAV (GPS) RWY 22   download (180KB)
NOTE: Special Take-Off Minimums/Departure Procedures apply   download (126KB)

Other nearby airports with instrument procedures:

3M7 - Lafayette Municipal Airport (23 nm SW)
KGLW - Glasgow Municipal Airport (23 nm NW)
8A3 - Livingston Municipal Airport (25 nm SE)
K24 - Russell County Airport (31 nm NE)
KEKQ - Wayne County Airport (39 nm E)
 
Loc | Ops | Rwys | IFR | FBO | Links
Com | Nav | Svcs | Stats | Notes

AirNav Hotels Sweepstakes
 
Area around KTZV (Tompkinsville-Monroe County Airport)
 
Road maps at: MapQuest Bing Google
 
Aerial photo
WARNING: Photo may not be current or correct
Aerial photo of KTZV (Tompkinsville-Monroe County Airport)
Do you have a better or more recent aerial photo of Tompkinsville-Monroe County Airport that you would like to share? If so, please send us your photo.

 
Sectional chart

 
Airport distance calculator
Flying to Tompkinsville-Monroe County Airport? Find the distance to fly.

From to KTZV

Sunrise and sunset
Times for 21-May-2018
 Local
(UTC-5)
 Zulu
(UTC)
Morning civil twilight05:0210:02
Sunrise05:3210:32
Sunset19:4700:47
Evening civil twilight20:1601:16

Current date and time
Zulu (UTC)  21-May-2018 07:09:12
Local (UTC-5)  21-May-2018 02:09:12
 
METAR
KGLW 
23nm NW 
210650Z AUTO 00000KT 7SM CLR 18/17 A3009 RMK AO2 T01810171
K8A3 
25nm SE 
210655Z AUTO 14004KT 10SM CLR 19/17 A3011 RMK A01
KEKQ 
39nm E 
210656Z AUTO 01007KT 10SM CLR 18/17 A3013 RMK AO2 SLP211 T01780172 PNO $
KBWG 
39nm W 
210653Z AUTO 14006KT 9SM CLR 20/19 A3007 RMK AO2 SLP175 T02000194
K1M5 
41nm W 
210655Z AUTO 17007KT 10SM CLR 19/18 A3008 RMK A01
KSRB 
41nm S 
210655Z AUTO 00000KT 10SM CLR 20/19 A3011 RMK A01
KM33 
42nm SW 
210655Z AUTO 00000KT 3SM BR SCT002 BKN042 19/18 A3012 RMK A01
TAF
NOTAMs
Click for the latest NOTAMs
NOTAMs are issued by the DoD/FAA and will open in a separate window not controlled by AirNav.

 

 
 

FBO, Fuel Providers, and Aircraft Ground Support

  
 Business Name 
 
 Contact 
 
 Services / Description 
 
Fuel Prices
 
Comments
  
Tompkinsville-Monroe County Airport 270-487-0678
no information available

If you are affiliated with Tompkinsville-Monroe County Airport and would like to show here your services, contact info, web link, logo, and more, click here
100LL
SS $3.99 
 Updated 05-Dec-2016
 
   write
SS=Self service
Update Fuel Prices
 

Would you like to see your business listed on this page?

 If your business provides an interesting product or service to pilots, flight crews, aircraft, or users of the Tompkinsville-Monroe County Airport, you should consider listing it here.  To start the listing process, click on the button below
 
Add a business
 

Other Pages about Tompkinsville-Monroe County Airport

www.monroecountyky.com/tzv_airport.html
 
Update a link
 
Copyright © AirNav, LLC. All rights reserved. Privacy Policy  Contact